KZ-0065 weather

CLOSED Aksuyek Airport
Aksuyek, Almaty Region, Kazakhstan

Public forecast

Using degrees Celsius for public forecast. Weather courtesy of forecast.io.

METAR (pilot weather report)

Closest report is Manas International Airport, 93.2 nm (172.6 km) S. Retrieved 2019/03/23 08:00 UTC (6 minutes ago):

UCFM 230800Z 30003MPS 240V340 CAVOK 17/02 Q1014 R26/09//95 NOSIG

TAF (pilot weather forecast)

Closest forecast is Manas International Airport, 93.2 nm (172.6 km) S. Retrieved 2019/03/23 06:00 UTC (2 hours ago):

TAF UCFM 230446Z 2306/2406 24003G08MPS 9999 SCT050CB TEMPO 2306/2312 32006G11MPS 2000 DU TEMPO 2312/2318 27010G15MPS 2000 BLDU BKN030CB FM231800 32003G08MPS 6000 SCT007 BKN020CB TEMPO 2318/2406 1500 SHRA BR FEW005 OVC015CB